sensor_id;sensor_type;location;lat;lon;timestamp;P1;durP1;ratioP1;P2;durP2;ratioP2
71423;SDS011;59240;51.370;-0.486;2023-04-16T00:01:14;14.90;;;7.40;;
71423;SDS011;59240;51.370;-0.486;2023-04-16T00:03:41;14.05;;;7.10;;
71423;SDS011;59240;51.370;-0.486;2023-04-16T00:06:09;16.52;;;7.78;;
71423;SDS011;59240;51.370;-0.486;2023-04-16T00:11:26;13.93;;;6.85;;
71423;SDS011;59240;51.370;-0.486;2023-04-16T00:13:53;13.82;;;7.00;;
71423;SDS011;59240;51.370;-0.486;2023-04-16T00:16:20;15.90;;;7.38;;
71423;SDS011;59240;51.370;-0.486;2023-04-16T00:18:47;14.15;;;7.45;;
71423;SDS011;59240;51.370;-0.486;2023-04-16T00:21:13;16.43;;;7.43;;
71423;SDS011;59240;51.370;-0.486;2023-04-16T00:23:41;15.85;;;7.50;;
71423;SDS011;59240;51.370;-0.486;2023-04-16T00:26:07;15.93;;;6.93;;
71423;SDS011;59240;51.370;-0.486;2023-04-16T00:28:34;13.88;;;7.13;;
71423;SDS011;59240;51.370;-0.486;2023-04-16T00:31:01;13.20;;;6.65;;
71423;SDS011;59240;51.370;-0.486;2023-04-16T00:33:50;16.10;;;6.53;;
71423;SDS011;59240;51.370;-0.486;2023-04-16T00:36:17;14.20;;;6.90;;
71423;SDS011;59240;51.370;-0.486;2023-04-16T00:38:47;13.75;;;6.75;;
71423;SDS011;59240;51.370;-0.486;2023-04-16T00:41:14;13.88;;;6.25;;
71423;SDS011;59240;51.370;-0.486;2023-04-16T00:43:41;14.82;;;6.63;;
71423;SDS011;59240;51.370;-0.486;2023-04-16T00:46:08;15.23;;;7.23;;
71423;SDS011;59240;51.370;-0.486;2023-04-16T00:48:35;15.23;;;7.28;;
71423;SDS011;59240;51.370;-0.486;2023-04-16T00:51:06;16.77;;;7.60;;
71423;SDS011;59240;51.370;-0.486;2023-04-16T00:53:33;13.48;;;6.80;;
71423;SDS011;59240;51.370;-0.486;2023-04-16T00:56:01;16.77;;;7.15;;
71423;SDS011;59240;51.370;-0.486;2023-04-16T00:58:29;14.23;;;6.27;;
71423;SDS011;59240;51.370;-0.486;2023-04-16T01:00:58;13.10;;;7.10;;
71423;SDS011;59240;51.370;-0.486;2023-04-16T01:03:27;15.70;;;7.47;;
71423;SDS011;59240;51.370;-0.486;2023-04-16T01:06:06;19.85;;;9.18;;
71423;SDS011;59240;51.370;-0.486;2023-04-16T01:08:33;23.75;;;12.20;;
71423;SDS011;59240;51.370;-0.486;2023-04-16T01:11:00;32.00;;;12.30;;
71423;SDS011;59240;51.370;-0.486;2023-04-16T01:13:28;21.95;;;10.90;;
71423;SDS011;59240;51.370;-0.486;2023-04-16T01:15:55;25.23;;;11.70;;
71423;SDS011;59240;51.370;-0.486;2023-04-16T01:18:22;24.45;;;11.15;;
71423;SDS011;59240;51.370;-0.486;2023-04-16T01:20:49;26.83;;;11.82;;
71423;SDS011;59240;51.370;-0.486;2023-04-16T01:23:16;27.53;;;13.47;;
71423;SDS011;59240;51.370;-0.486;2023-04-16T01:25:44;32.50;;;15.55;;
71423;SDS011;59240;51.370;-0.486;2023-04-16T01:28:11;30.92;;;13.25;;
71423;SDS011;59240;51.370;-0.486;2023-04-16T01:30:38;26.95;;;11.90;;
71423;SDS011;59240;51.370;-0.486;2023-04-16T01:33:07;22.35;;;10.38;;
71423;SDS011;59240;51.370;-0.486;2023-04-16T01:35:36;16.97;;;8.53;;
71423;SDS011;59240;51.370;-0.486;2023-04-16T01:38:07;16.90;;;8.27;;
71423;SDS011;59240;51.370;-0.486;2023-04-16T01:40:35;18.42;;;8.50;;
71423;SDS011;59240;51.370;-0.486;2023-04-16T01:43:04;16.05;;;7.45;;
71423;SDS011;59240;51.370;-0.486;2023-04-16T01:45:33;15.98;;;8.02;;
71423;SDS011;59240;51.370;-0.486;2023-04-16T01:48:01;13.70;;;7.93;;
71423;SDS011;59240;51.370;-0.486;2023-04-16T01:50:29;15.48;;;7.82;;
71423;SDS011;59240;51.370;-0.486;2023-04-16T01:52:56;15.25;;;7.63;;
71423;SDS011;59240;51.370;-0.486;2023-04-16T01:55:23;14.10;;;7.50;;
71423;SDS011;59240;51.370;-0.486;2023-04-16T01:57:50;14.93;;;7.43;;
71423;SDS011;59240;51.370;-0.486;2023-04-16T02:00:16;12.80;;;7.83;;
71423;SDS011;59240;51.370;-0.486;2023-04-16T02:02:43;15.68;;;7.38;;
71423;SDS011;59240;51.370;-0.486;2023-04-16T02:05:11;17.50;;;7.97;;
71423;SDS011;59240;51.370;-0.486;2023-04-16T02:07:38;16.02;;;7.53;;
71423;SDS011;59240;51.370;-0.486;2023-04-16T02:10:05;14.95;;;7.75;;
71423;SDS011;59240;51.370;-0.486;2023-04-16T02:12:32;13.73;;;7.07;;
71423;SDS011;59240;51.370;-0.486;2023-04-16T02:14:59;17.08;;;7.78;;
71423;SDS011;59240;51.370;-0.486;2023-04-16T02:17:26;15.30;;;7.15;;
71423;SDS011;59240;51.370;-0.486;2023-04-16T02:19:52;15.00;;;7.38;;
71423;SDS011;59240;51.370;-0.486;2023-04-16T02:22:19;14.60;;;7.65;;
71423;SDS011;59240;51.370;-0.486;2023-04-16T02:24:46;15.87;;;7.73;;
71423;SDS011;59240;51.370;-0.486;2023-04-16T02:27:12;12.93;;;7.22;;
71423;SDS011;59240;51.370;-0.486;2023-04-16T02:29:39;14.02;;;7.32;;
71423;SDS011;59240;51.370;-0.486;2023-04-16T02:32:06;13.98;;;7.18;;
71423;SDS011;59240;51.370;-0.486;2023-04-16T02:34:35;16.40;;;8.18;;
71423;SDS011;59240;51.370;-0.486;2023-04-16T02:37:01;14.10;;;7.50;;
71423;SDS011;59240;51.370;-0.486;2023-04-16T02:39:30;15.15;;;7.05;;
71423;SDS011;59240;51.370;-0.486;2023-04-16T02:41:57;15.15;;;7.32;;
71423;SDS011;59240;51.370;-0.486;2023-04-16T02:44:24;15.18;;;8.10;;
71423;SDS011;59240;51.370;-0.486;2023-04-16T02:46:51;14.20;;;7.50;;
71423;SDS011;59240;51.370;-0.486;2023-04-16T02:49:17;14.30;;;7.30;;
71423;SDS011;59240;51.370;-0.486;2023-04-16T02:51:44;13.95;;;7.70;;
71423;SDS011;59240;51.370;-0.486;2023-04-16T02:54:11;13.60;;;7.53;;
71423;SDS011;59240;51.370;-0.486;2023-04-16T02:56:38;14.52;;;7.60;;
71423;SDS011;59240;51.370;-0.486;2023-04-16T02:59:04;15.23;;;7.88;;
71423;SDS011;59240;51.370;-0.486;2023-04-16T03:01:31;14.73;;;7.93;;
71423;SDS011;59240;51.370;-0.486;2023-04-16T03:03:58;15.48;;;8.05;;
71423;SDS011;59240;51.370;-0.486;2023-04-16T03:06:25;16.50;;;7.63;;
71423;SDS011;59240;51.370;-0.486;2023-04-16T03:08:52;15.90;;;8.27;;
71423;SDS011;59240;51.370;-0.486;2023-04-16T03:11:19;17.90;;;8.43;;
71423;SDS011;59240;51.370;-0.486;2023-04-16T03:13:45;17.07;;;8.30;;
71423;SDS011;59240;51.370;-0.486;2023-04-16T03:16:12;17.42;;;8.95;;
71423;SDS011;59240;51.370;-0.486;2023-04-16T03:18:39;17.42;;;9.50;;
71423;SDS011;59240;51.370;-0.486;2023-04-16T03:21:05;16.73;;;8.43;;
71423;SDS011;59240;51.370;-0.486;2023-04-16T03:23:32;20.60;;;9.50;;
71423;SDS011;59240;51.370;-0.486;2023-04-16T03:25:59;16.57;;;8.93;;
71423;SDS011;59240;51.370;-0.486;2023-04-16T03:28:25;17.67;;;8.65;;
71423;SDS011;59240;51.370;-0.486;2023-04-16T03:30:52;15.55;;;8.40;;
71423;SDS011;59240;51.370;-0.486;2023-04-16T03:33:19;15.73;;;8.50;;
71423;SDS011;59240;51.370;-0.486;2023-04-16T03:35:53;18.00;;;8.25;;
71423;SDS011;59240;51.370;-0.486;2023-04-16T03:38:21;17.70;;;8.83;;
71423;SDS011;59240;51.370;-0.486;2023-04-16T03:40:48;16.13;;;8.10;;
71423;SDS011;59240;51.370;-0.486;2023-04-16T03:43:15;17.15;;;8.82;;
71423;SDS011;59240;51.370;-0.486;2023-04-16T03:45:45;17.15;;;8.38;;
71423;SDS011;59240;51.370;-0.486;2023-04-16T03:48:12;16.58;;;7.97;;
71423;SDS011;59240;51.370;-0.486;2023-04-16T03:50:38;14.23;;;7.33;;
71423;SDS011;59240;51.370;-0.486;2023-04-16T03:53:05;16.30;;;8.15;;
71423;SDS011;59240;51.370;-0.486;2023-04-16T03:55:32;15.95;;;7.75;;
71423;SDS011;59240;51.370;-0.486;2023-04-16T03:57:58;15.60;;;7.50;;
71423;SDS011;59240;51.370;-0.486;2023-04-16T04:00:28;15.93;;;8.35;;
71423;SDS011;59240;51.370;-0.486;2023-04-16T04:02:55;14.47;;;8.10;;
71423;SDS011;59240;51.370;-0.486;2023-04-16T04:05:23;15.07;;;8.05;;
71423;SDS011;59240;51.370;-0.486;2023-04-16T04:07:49;19.20;;;8.05;;
71423;SDS011;59240;51.370;-0.486;2023-04-16T04:10:16;18.33;;;8.13;;
71423;SDS011;59240;51.370;-0.486;2023-04-16T04:12:43;15.07;;;7.70;;
71423;SDS011;59240;51.370;-0.486;2023-04-16T04:15:09;20.37;;;8.57;;
71423;SDS011;59240;51.370;-0.486;2023-04-16T04:17:37;14.85;;;8.43;;
71423;SDS011;59240;51.370;-0.486;2023-04-16T04:20:04;17.25;;;8.40;;
71423;SDS011;59240;51.370;-0.486;2023-04-16T04:22:31;13.98;;;7.72;;
71423;SDS011;59240;51.370;-0.486;2023-04-16T04:24:57;16.60;;;8.00;;
71423;SDS011;59240;51.370;-0.486;2023-04-16T04:27:24;14.07;;;7.77;;
71423;SDS011;59240;51.370;-0.486;2023-04-16T04:29:55;14.55;;;7.43;;
71423;SDS011;59240;51.370;-0.486;2023-04-16T04:32:21;16.13;;;7.20;;
71423;SDS011;59240;51.370;-0.486;2023-04-16T04:34:48;13.57;;;7.45;;
71423;SDS011;59240;51.370;-0.486;2023-04-16T04:37:15;14.75;;;7.40;;
71423;SDS011;59240;51.370;-0.486;2023-04-16T04:39:42;18.83;;;7.50;;
71423;SDS011;59240;51.370;-0.486;2023-04-16T04:42:08;16.70;;;7.35;;
71423;SDS011;59240;51.370;-0.486;2023-04-16T04:44:35;16.90;;;7.45;;
71423;SDS011;59240;51.370;-0.486;2023-04-16T04:47:01;13.35;;;7.63;;
71423;SDS011;59240;51.370;-0.486;2023-04-16T04:49:28;16.55;;;7.78;;
71423;SDS011;59240;51.370;-0.486;2023-04-16T04:51:56;15.57;;;8.40;;
71423;SDS011;59240;51.370;-0.486;2023-04-16T04:54:22;15.63;;;7.50;;
71423;SDS011;59240;51.370;-0.486;2023-04-16T04:56:49;14.80;;;7.72;;
71423;SDS011;59240;51.370;-0.486;2023-04-16T04:59:18;15.95;;;7.28;;
71423;SDS011;59240;51.370;-0.486;2023-04-16T05:01:46;15.27;;;7.63;;
71423;SDS011;59240;51.370;-0.486;2023-04-16T05:04:12;14.30;;;7.10;;
71423;SDS011;59240;51.370;-0.486;2023-04-16T05:06:39;13.85;;;6.97;;
71423;SDS011;59240;51.370;-0.486;2023-04-16T05:09:06;16.17;;;7.35;;
71423;SDS011;59240;51.370;-0.486;2023-04-16T05:11:37;14.52;;;7.10;;
71423;SDS011;59240;51.370;-0.486;2023-04-16T05:14:04;13.15;;;7.18;;
71423;SDS011;59240;51.370;-0.486;2023-04-16T05:16:31;15.07;;;6.97;;
71423;SDS011;59240;51.370;-0.486;2023-04-16T05:18:57;13.85;;;7.50;;
71423;SDS011;59240;51.370;-0.486;2023-04-16T05:21:24;13.20;;;7.25;;
71423;SDS011;59240;51.370;-0.486;2023-04-16T05:23:51;16.42;;;8.07;;
71423;SDS011;59240;51.370;-0.486;2023-04-16T05:26:18;17.98;;;7.60;;
71423;SDS011;59240;51.370;-0.486;2023-04-16T05:28:46;13.43;;;7.57;;
71423;SDS011;59240;51.370;-0.486;2023-04-16T05:31:12;17.23;;;7.90;;
71423;SDS011;59240;51.370;-0.486;2023-04-16T05:33:39;16.05;;;7.45;;
71423;SDS011;59240;51.370;-0.486;2023-04-16T05:36:06;15.23;;;6.60;;
71423;SDS011;59240;51.370;-0.486;2023-04-16T05:38:33;12.65;;;6.90;;
71423;SDS011;59240;51.370;-0.486;2023-04-16T05:41:00;14.07;;;7.50;;
71423;SDS011;59240;51.370;-0.486;2023-04-16T05:43:27;13.93;;;7.13;;
71423;SDS011;59240;51.370;-0.486;2023-04-16T05:45:53;13.82;;;7.72;;
71423;SDS011;59240;51.370;-0.486;2023-04-16T05:48:20;16.80;;;7.78;;
71423;SDS011;59240;51.370;-0.486;2023-04-16T05:50:48;16.08;;;7.63;;
71423;SDS011;59240;51.370;-0.486;2023-04-16T05:53:14;15.83;;;7.63;;
71423;SDS011;59240;51.370;-0.486;2023-04-16T05:55:42;15.10;;;7.47;;
71423;SDS011;59240;51.370;-0.486;2023-04-16T05:58:08;15.60;;;7.38;;
71423;SDS011;59240;51.370;-0.486;2023-04-16T06:00:35;16.75;;;7.85;;
71423;SDS011;59240;51.370;-0.486;2023-04-16T06:03:02;15.45;;;7.88;;
71423;SDS011;59240;51.370;-0.486;2023-04-16T06:05:29;16.47;;;8.43;;
71423;SDS011;59240;51.370;-0.486;2023-04-16T06:07:56;14.52;;;7.50;;
71423;SDS011;59240;51.370;-0.486;2023-04-16T06:10:23;17.75;;;7.72;;
71423;SDS011;59240;51.370;-0.486;2023-04-16T06:12:49;16.70;;;8.73;;
71423;SDS011;59240;51.370;-0.486;2023-04-16T06:15:16;15.00;;;7.60;;
71423;SDS011;59240;51.370;-0.486;2023-04-16T06:17:43;17.27;;;8.30;;
71423;SDS011;59240;51.370;-0.486;2023-04-16T06:20:13;16.88;;;8.02;;
71423;SDS011;59240;51.370;-0.486;2023-04-16T06:22:39;15.07;;;7.63;;
71423;SDS011;59240;51.370;-0.486;2023-04-16T06:25:09;15.00;;;7.72;;
71423;SDS011;59240;51.370;-0.486;2023-04-16T06:27:36;15.10;;;8.35;;
71423;SDS011;59240;51.370;-0.486;2023-04-16T06:30:11;18.27;;;7.77;;
71423;SDS011;59240;51.370;-0.486;2023-04-16T06:32:49;14.45;;;7.38;;
71423;SDS011;59240;51.370;-0.486;2023-04-16T06:35:16;12.82;;;7.07;;
71423;SDS011;59240;51.370;-0.486;2023-04-16T06:37:45;15.18;;;6.55;;
71423;SDS011;59240;51.370;-0.486;2023-04-16T06:40:15;13.55;;;7.53;;
71423;SDS011;59240;51.370;-0.486;2023-04-16T06:42:42;13.60;;;6.57;;
71423;SDS011;59240;51.370;-0.486;2023-04-16T06:45:11;12.60;;;6.97;;
71423;SDS011;59240;51.370;-0.486;2023-04-16T06:47:43;14.57;;;6.38;;
71423;SDS011;59240;51.370;-0.486;2023-04-16T06:50:10;13.52;;;6.55;;
71423;SDS011;59240;51.370;-0.486;2023-04-16T06:52:37;14.73;;;6.45;;
71423;SDS011;59240;51.370;-0.486;2023-04-16T06:55:03;12.70;;;6.67;;
71423;SDS011;59240;51.370;-0.486;2023-04-16T06:57:32;13.98;;;6.68;;
71423;SDS011;59240;51.370;-0.486;2023-04-16T07:00:02;15.93;;;6.95;;
71423;SDS011;59240;51.370;-0.486;2023-04-16T07:02:35;13.30;;;6.72;;
71423;SDS011;59240;51.370;-0.486;2023-04-16T07:05:02;14.20;;;6.47;;
71423;SDS011;59240;51.370;-0.486;2023-04-16T07:07:29;13.30;;;6.63;;
71423;SDS011;59240;51.370;-0.486;2023-04-16T07:09:57;13.23;;;7.50;;
71423;SDS011;59240;51.370;-0.486;2023-04-16T07:12:24;14.98;;;6.72;;
71423;SDS011;59240;51.370;-0.486;2023-04-16T07:14:51;13.73;;;6.75;;
71423;SDS011;59240;51.370;-0.486;2023-04-16T07:17:18;12.85;;;6.57;;
71423;SDS011;59240;51.370;-0.486;2023-04-16T07:19:45;13.20;;;6.67;;
71423;SDS011;59240;51.370;-0.486;2023-04-16T07:22:19;14.35;;;6.20;;
71423;SDS011;59240;51.370;-0.486;2023-04-16T07:24:49;11.50;;;5.65;;
71423;SDS011;59240;51.370;-0.486;2023-04-16T07:27:21;12.43;;;6.45;;
71423;SDS011;59240;51.370;-0.486;2023-04-16T07:29:51;12.20;;;5.57;;
71423;SDS011;59240;51.370;-0.486;2023-04-16T07:32:22;12.87;;;6.27;;
71423;SDS011;59240;51.370;-0.486;2023-04-16T07:34:49;13.00;;;6.05;;
71423;SDS011;59240;51.370;-0.486;2023-04-16T07:37:17;13.63;;;5.20;;
71423;SDS011;59240;51.370;-0.486;2023-04-16T07:39:44;13.90;;;5.35;;
71423;SDS011;59240;51.370;-0.486;2023-04-16T07:42:12;10.90;;;5.60;;
71423;SDS011;59240;51.370;-0.486;2023-04-16T07:44:39;10.07;;;4.90;;
71423;SDS011;59240;51.370;-0.486;2023-04-16T07:47:06;12.68;;;6.10;;
71423;SDS011;59240;51.370;-0.486;2023-04-16T07:49:33;14.32;;;4.97;;
71423;SDS011;59240;51.370;-0.486;2023-04-16T07:51:59;11.23;;;5.15;;
71423;SDS011;59240;51.370;-0.486;2023-04-16T07:54:29;13.32;;;5.10;;
71423;SDS011;59240;51.370;-0.486;2023-04-16T08:00:49;8.93;;;3.72;;
71423;SDS011;59240;51.370;-0.486;2023-04-16T08:07:36;10.13;;;3.63;;
71423;SDS011;59240;51.370;-0.486;2023-04-16T08:10:40;8.23;;;3.22;;
71423;SDS011;59240;51.370;-0.486;2023-04-16T08:13:11;8.43;;;3.10;;
71423;SDS011;59240;51.370;-0.486;2023-04-16T08:15:40;10.85;;;3.97;;
71423;SDS011;59240;51.370;-0.486;2023-04-16T08:18:07;6.63;;;2.80;;
71423;SDS011;59240;51.370;-0.486;2023-04-16T08:20:38;7.50;;;2.38;;
71423;SDS011;59240;51.370;-0.486;2023-04-16T08:23:05;8.23;;;2.72;;
71423;SDS011;59240;51.370;-0.486;2023-04-16T08:25:32;9.13;;;2.80;;
71423;SDS011;59240;51.370;-0.486;2023-04-16T08:28:04;6.20;;;1.80;;
71423;SDS011;59240;51.370;-0.486;2023-04-16T08:30:31;6.38;;;1.67;;
71423;SDS011;59240;51.370;-0.486;2023-04-16T08:33:00;6.05;;;2.10;;
71423;SDS011;59240;51.370;-0.486;2023-04-16T08:35:27;5.55;;;1.83;;
71423;SDS011;59240;51.370;-0.486;2023-04-16T08:37:57;7.07;;;1.70;;
71423;SDS011;59240;51.370;-0.486;2023-04-16T08:40:36;7.32;;;1.90;;
71423;SDS011;59240;51.370;-0.486;2023-04-16T08:43:09;6.72;;;1.65;;
71423;SDS011;59240;51.370;-0.486;2023-04-16T08:45:41;4.57;;;1.40;;
71423;SDS011;59240;51.370;-0.486;2023-04-16T08:48:10;6.40;;;1.85;;
71423;SDS011;59240;51.370;-0.486;2023-04-16T08:50:45;5.50;;;1.40;;
71423;SDS011;59240;51.370;-0.486;2023-04-16T08:53:20;5.40;;;1.20;;
71423;SDS011;59240;51.370;-0.486;2023-04-16T08:55:55;6.03;;;1.10;;
71423;SDS011;59240;51.370;-0.486;2023-04-16T08:58:25;4.95;;;1.30;;
71423;SDS011;59240;51.370;-0.486;2023-04-16T09:00:55;6.28;;;1.30;;
71423;SDS011;59240;51.370;-0.486;2023-04-16T09:03:22;4.77;;;0.90;;
71423;SDS011;59240;51.370;-0.486;2023-04-16T09:05:50;5.50;;;1.10;;
71423;SDS011;59240;51.370;-0.486;2023-04-16T09:08:17;6.00;;;1.20;;
71423;SDS011;59240;51.370;-0.486;2023-04-16T09:10:47;4.75;;;1.10;;
71423;SDS011;59240;51.370;-0.486;2023-04-16T09:13:14;4.57;;;1.13;;
71423;SDS011;59240;51.370;-0.486;2023-04-16T09:15:50;4.53;;;1.23;;
71423;SDS011;59240;51.370;-0.486;2023-04-16T09:18:29;5.68;;;1.05;;
71423;SDS011;59240;51.370;-0.486;2023-04-16T09:20:57;6.72;;;1.30;;
71423;SDS011;59240;51.370;-0.486;2023-04-16T09:23:24;6.25;;;1.52;;
71423;SDS011;59240;51.370;-0.486;2023-04-16T09:25:59;9.57;;;2.28;;
71423;SDS011;59240;51.370;-0.486;2023-04-16T09:28:51;7.07;;;2.27;;
71423;SDS011;59240;51.370;-0.486;2023-04-16T09:31:20;8.30;;;2.45;;
71423;SDS011;59240;51.370;-0.486;2023-04-16T09:34:20;5.53;;;1.80;;
71423;SDS011;59240;51.370;-0.486;2023-04-16T09:36:50;6.40;;;2.10;;
71423;SDS011;59240;51.370;-0.486;2023-04-16T09:39:22;6.57;;;1.60;;
71423;SDS011;59240;51.370;-0.486;2023-04-16T09:41:49;5.97;;;1.87;;
71423;SDS011;59240;51.370;-0.486;2023-04-16T09:44:19;6.35;;;1.98;;
71423;SDS011;59240;51.370;-0.486;2023-04-16T09:46:47;5.60;;;1.75;;
71423;SDS011;59240;51.370;-0.486;2023-04-16T09:49:16;7.05;;;1.48;;
71423;SDS011;59240;51.370;-0.486;2023-04-16T09:51:55;5.35;;;1.40;;
71423;SDS011;59240;51.370;-0.486;2023-04-16T09:54:30;6.13;;;1.20;;
71423;SDS011;59240;51.370;-0.486;2023-04-16T09:57:08;4.57;;;1.17;;
71423;SDS011;59240;51.370;-0.486;2023-04-16T09:59:34;5.40;;;1.63;;
71423;SDS011;59240;51.370;-0.486;2023-04-16T10:02:20;6.05;;;1.15;;
71423;SDS011;59240;51.370;-0.486;2023-04-16T10:04:49;7.03;;;1.50;;
71423;SDS011;59240;51.370;-0.486;2023-04-16T10:07:20;5.30;;;1.30;;
71423;SDS011;59240;51.370;-0.486;2023-04-16T10:09:47;4.72;;;0.95;;
71423;SDS011;59240;51.370;-0.486;2023-04-16T10:12:16;3.55;;;0.70;;
71423;SDS011;59240;51.370;-0.486;2023-04-16T10:14:43;4.05;;;1.00;;
71423;SDS011;59240;51.370;-0.486;2023-04-16T10:17:09;3.75;;;0.77;;
71423;SDS011;59240;51.370;-0.486;2023-04-16T10:19:36;6.20;;;1.17;;
71423;SDS011;59240;51.370;-0.486;2023-04-16T10:22:06;5.65;;;1.13;;
71423;SDS011;59240;51.370;-0.486;2023-04-16T10:24:33;4.22;;;1.05;;
71423;SDS011;59240;51.370;-0.486;2023-04-16T10:27:02;5.50;;;1.25;;
71423;SDS011;59240;51.370;-0.486;2023-04-16T10:29:29;4.72;;;1.00;;
71423;SDS011;59240;51.370;-0.486;2023-04-16T10:32:00;4.53;;;0.90;;
71423;SDS011;59240;51.370;-0.486;2023-04-16T10:34:27;4.78;;;1.00;;
71423;SDS011;59240;51.370;-0.486;2023-04-16T10:36:54;4.47;;;1.08;;
71423;SDS011;59240;51.370;-0.486;2023-04-16T10:39:24;4.05;;;0.95;;
71423;SDS011;59240;51.370;-0.486;2023-04-16T10:42:09;5.55;;;1.05;;
71423;SDS011;59240;51.370;-0.486;2023-04-16T10:44:38;5.43;;;1.33;;
71423;SDS011;59240;51.370;-0.486;2023-04-16T10:47:10;5.10;;;1.23;;
71423;SDS011;59240;51.370;-0.486;2023-04-16T10:49:40;5.30;;;0.90;;
71423;SDS011;59240;51.370;-0.486;2023-04-16T10:52:11;3.90;;;1.10;;
71423;SDS011;59240;51.370;-0.486;2023-04-16T10:54:40;3.88;;;0.90;;
71423;SDS011;59240;51.370;-0.486;2023-04-16T10:57:08;5.17;;;1.10;;
71423;SDS011;59240;51.370;-0.486;2023-04-16T10:59:37;4.45;;;1.00;;
71423;SDS011;59240;51.370;-0.486;2023-04-16T11:02:11;4.03;;;0.90;;
71423;SDS011;59240;51.370;-0.486;2023-04-16T11:04:53;4.88;;;1.13;;
71423;SDS011;59240;51.370;-0.486;2023-04-16T11:07:31;5.07;;;0.93;;
71423;SDS011;59240;51.370;-0.486;2023-04-16T11:15:01;4.55;;;0.90;;
71423;SDS011;59240;51.370;-0.486;2023-04-16T11:17:40;3.80;;;0.70;;
71423;SDS011;59240;51.370;-0.486;2023-04-16T11:20:13;5.05;;;1.00;;
71423;SDS011;59240;51.370;-0.486;2023-04-16T11:22:49;4.20;;;0.80;;
71423;SDS011;59240;51.370;-0.486;2023-04-16T11:25:27;2.80;;;0.70;;
71423;SDS011;59240;51.370;-0.486;2023-04-16T11:27:55;4.00;;;0.80;;
71423;SDS011;59240;51.370;-0.486;2023-04-16T11:30:28;3.50;;;0.70;;
71423;SDS011;59240;51.370;-0.486;2023-04-16T11:32:57;4.07;;;0.50;;
71423;SDS011;59240;51.370;-0.486;2023-04-16T11:35:26;2.47;;;0.57;;
71423;SDS011;59240;51.370;-0.486;2023-04-16T11:37:56;3.50;;;0.68;;
71423;SDS011;59240;51.370;-0.486;2023-04-16T11:40:23;3.90;;;0.60;;
71423;SDS011;59240;51.370;-0.486;2023-04-16T11:42:50;2.47;;;0.52;;
71423;SDS011;59240;51.370;-0.486;2023-04-16T11:45:17;4.00;;;0.60;;
71423;SDS011;59240;51.370;-0.486;2023-04-16T11:47:49;4.07;;;0.70;;
71423;SDS011;59240;51.370;-0.486;2023-04-16T11:52:48;3.88;;;0.60;;
71423;SDS011;59240;51.370;-0.486;2023-04-16T11:55:19;5.47;;;0.93;;
71423;SDS011;59240;51.370;-0.486;2023-04-16T11:57:47;4.28;;;0.82;;
71423;SDS011;59240;51.370;-0.486;2023-04-16T12:00:16;5.90;;;1.00;;
71423;SDS011;59240;51.370;-0.486;2023-04-16T12:02:49;2.90;;;0.60;;
71423;SDS011;59240;51.370;-0.486;2023-04-16T12:07:56;3.70;;;0.57;;
71423;SDS011;59240;51.370;-0.486;2023-04-16T12:10:53;3.67;;;0.60;;
71423;SDS011;59240;51.370;-0.486;2023-04-16T12:13:20;5.77;;;0.67;;
71423;SDS011;59240;51.370;-0.486;2023-04-16T12:15:53;3.83;;;0.70;;
71423;SDS011;59240;51.370;-0.486;2023-04-16T12:18:25;3.05;;;0.63;;
71423;SDS011;59240;51.370;-0.486;2023-04-16T12:20:53;3.75;;;0.60;;
71423;SDS011;59240;51.370;-0.486;2023-04-16T12:23:24;3.70;;;0.80;;
71423;SDS011;59240;51.370;-0.486;2023-04-16T12:25:58;2.33;;;0.60;;
71423;SDS011;59240;51.370;-0.486;2023-04-16T12:28:36;4.95;;;0.80;;
71423;SDS011;59240;51.370;-0.486;2023-04-16T12:31:06;3.60;;;0.70;;
71423;SDS011;59240;51.370;-0.486;2023-04-16T12:33:36;4.18;;;0.63;;
71423;SDS011;59240;51.370;-0.486;2023-04-16T12:36:18;3.38;;;0.95;;
71423;SDS011;59240;51.370;-0.486;2023-04-16T12:38:45;3.40;;;0.60;;
71423;SDS011;59240;51.370;-0.486;2023-04-16T12:41:11;3.10;;;0.63;;
71423;SDS011;59240;51.370;-0.486;2023-04-16T12:43:38;4.18;;;0.73;;
71423;SDS011;59240;51.370;-0.486;2023-04-16T12:46:05;4.22;;;0.70;;
71423;SDS011;59240;51.370;-0.486;2023-04-16T12:48:32;3.53;;;0.50;;
71423;SDS011;59240;51.370;-0.486;2023-04-16T12:50:59;2.37;;;0.57;;
71423;SDS011;59240;51.370;-0.486;2023-04-16T12:53:28;3.58;;;0.60;;
71423;SDS011;59240;51.370;-0.486;2023-04-16T12:55:55;4.43;;;0.85;;
71423;SDS011;59240;51.370;-0.486;2023-04-16T12:58:24;5.20;;;1.08;;
71423;SDS011;59240;51.370;-0.486;2023-04-16T13:00:50;3.72;;;0.63;;
71423;SDS011;59240;51.370;-0.486;2023-04-16T13:03:17;3.73;;;0.67;;
71423;SDS011;59240;51.370;-0.486;2023-04-16T13:05:49;5.00;;;0.85;;
71423;SDS011;59240;51.370;-0.486;2023-04-16T13:08:16;5.47;;;0.88;;
71423;SDS011;59240;51.370;-0.486;2023-04-16T13:10:43;8.10;;;1.67;;
71423;SDS011;59240;51.370;-0.486;2023-04-16T13:13:10;9.95;;;2.05;;
71423;SDS011;59240;51.370;-0.486;2023-04-16T13:15:36;8.07;;;1.97;;
71423;SDS011;59240;51.370;-0.486;2023-04-16T13:18:03;6.93;;;1.40;;
71423;SDS011;59240;51.370;-0.486;2023-04-16T13:20:31;5.05;;;0.80;;
71423;SDS011;59240;51.370;-0.486;2023-04-16T13:23:01;3.60;;;0.50;;
71423;SDS011;59240;51.370;-0.486;2023-04-16T13:25:31;3.50;;;0.60;;
71423;SDS011;59240;51.370;-0.486;2023-04-16T13:28:08;3.73;;;0.50;;
71423;SDS011;59240;51.370;-0.486;2023-04-16T13:30:35;3.10;;;0.50;;
71423;SDS011;59240;51.370;-0.486;2023-04-16T13:33:02;5.22;;;0.90;;
71423;SDS011;59240;51.370;-0.486;2023-04-16T13:35:29;3.65;;;0.68;;
71423;SDS011;59240;51.370;-0.486;2023-04-16T13:37:59;3.20;;;0.70;;
71423;SDS011;59240;51.370;-0.486;2023-04-16T13:40:26;3.57;;;0.60;;
71423;SDS011;59240;51.370;-0.486;2023-04-16T13:42:55;4.28;;;0.80;;
71423;SDS011;59240;51.370;-0.486;2023-04-16T13:45:22;2.53;;;0.50;;
71423;SDS011;59240;51.370;-0.486;2023-04-16T13:47:48;4.93;;;0.45;;
71423;SDS011;59240;51.370;-0.486;2023-04-16T13:50:20;4.78;;;0.55;;
71423;SDS011;59240;51.370;-0.486;2023-04-16T13:52:48;2.93;;;0.50;;
71423;SDS011;59240;51.370;-0.486;2023-04-16T13:55:27;3.60;;;0.38;;
71423;SDS011;59240;51.370;-0.486;2023-04-16T13:58:01;3.25;;;0.60;;
71423;SDS011;59240;51.370;-0.486;2023-04-16T14:00:29;3.15;;;0.57;;
71423;SDS011;59240;51.370;-0.486;2023-04-16T14:02:56;4.63;;;0.70;;
71423;SDS011;59240;51.370;-0.486;2023-04-16T14:05:23;3.27;;;0.60;;
71423;SDS011;59240;51.370;-0.486;2023-04-16T14:07:52;2.40;;;0.43;;
71423;SDS011;59240;51.370;-0.486;2023-04-16T14:10:20;3.58;;;0.60;;
71423;SDS011;59240;51.370;-0.486;2023-04-16T14:12:47;4.10;;;0.63;;
71423;SDS011;59240;51.370;-0.486;2023-04-16T14:15:14;3.67;;;0.52;;
71423;SDS011;59240;51.370;-0.486;2023-04-16T14:17:41;3.57;;;0.60;;
71423;SDS011;59240;51.370;-0.486;2023-04-16T14:20:11;5.20;;;1.17;;
71423;SDS011;59240;51.370;-0.486;2023-04-16T14:22:38;4.75;;;0.68;;
71423;SDS011;59240;51.370;-0.486;2023-04-16T14:25:07;5.03;;;0.57;;
71423;SDS011;59240;51.370;-0.486;2023-04-16T14:27:38;4.50;;;0.70;;
71423;SDS011;59240;51.370;-0.486;2023-04-16T14:30:06;4.20;;;0.60;;
71423;SDS011;59240;51.370;-0.486;2023-04-16T14:32:38;4.72;;;0.60;;
71423;SDS011;59240;51.370;-0.486;2023-04-16T14:35:06;3.28;;;0.43;;
71423;SDS011;59240;51.370;-0.486;2023-04-16T14:37:33;3.83;;;0.60;;
71423;SDS011;59240;51.370;-0.486;2023-04-16T14:40:01;2.72;;;0.47;;
71423;SDS011;59240;51.370;-0.486;2023-04-16T14:42:38;4.40;;;0.80;;
71423;SDS011;59240;51.370;-0.486;2023-04-16T14:45:05;4.40;;;0.70;;
71423;SDS011;59240;51.370;-0.486;2023-04-16T14:47:33;3.95;;;0.60;;
71423;SDS011;59240;51.370;-0.486;2023-04-16T14:50:02;5.60;;;0.52;;
71423;SDS011;59240;51.370;-0.486;2023-04-16T14:52:31;5.25;;;1.23;;
71423;SDS011;59240;51.370;-0.486;2023-04-16T14:54:58;7.87;;;1.07;;
71423;SDS011;59240;51.370;-0.486;2023-04-16T14:57:45;5.03;;;0.80;;